createdAt,value
2022-11-26T00:07:50.020Z,3.10
2022-11-26T00:16:01.711Z,9.27
2022-11-26T00:20:17.813Z,9.30
2022-11-26T00:24:32.271Z,10.00
2022-11-26T00:28:52.263Z,9.70
2022-11-26T00:33:10.818Z,9.40
2022-11-26T00:37:29.106Z,9.38
2022-11-26T00:41:44.400Z,10.10
2022-11-26T00:46:00.121Z,10.23
2022-11-26T00:50:24.669Z,10.48
2022-11-26T00:54:41.091Z,11.02
2022-11-26T00:58:56.044Z,11.03
2022-11-26T01:03:11.115Z,12.48
2022-11-26T01:07:27.476Z,11.55
2022-11-26T01:11:44.984Z,9.47
2022-11-26T01:16:07.336Z,11.32
2022-11-26T01:20:49.071Z,12.60
2022-11-26T01:25:09.155Z,11.73
2022-11-26T01:29:26.901Z,12.73
2022-11-26T01:33:44.169Z,10.48
2022-11-26T01:38:07.623Z,12.48
2022-11-26T01:42:35.072Z,12.43
2022-11-26T01:46:53.514Z,12.02
2022-11-26T01:51:11.660Z,11.15
2022-11-26T01:55:50.172Z,10.27
2022-11-26T02:00:12.989Z,10.65
2022-11-26T02:04:41.998Z,11.65
2022-11-26T02:09:01.641Z,10.97
2022-11-26T02:13:19.241Z,11.27
2022-11-26T02:17:43.316Z,11.00
2022-11-26T02:22:12.344Z,10.77
2022-11-26T02:27:21.994Z,10.90
2022-11-26T02:31:44.792Z,11.15
2022-11-26T02:36:03.419Z,11.10
2022-11-26T02:40:18.540Z,11.13
2022-11-26T02:44:42.880Z,10.38
2022-11-26T02:48:59.700Z,12.43
2022-11-26T02:53:21.141Z,11.40
2022-11-26T02:57:43.141Z,11.10
2022-11-26T03:02:01.033Z,10.00
2022-11-26T03:06:19.506Z,10.13
2022-11-26T03:10:37.295Z,10.60
2022-11-26T03:14:52.080Z,10.48
2022-11-26T03:19:06.788Z,10.43
2022-11-26T03:23:23.027Z,10.73
2022-11-26T03:27:37.826Z,9.88
2022-11-26T03:31:52.877Z,10.40
2022-11-26T03:36:09.092Z,10.20
2022-11-26T03:40:25.717Z,9.68
2022-11-26T03:44:42.290Z,10.35
2022-11-26T03:48:58.839Z,9.23
2022-11-26T03:53:14.037Z,9.20
2022-11-26T03:57:34.841Z,9.48
2022-11-26T04:01:52.917Z,9.95
2022-11-26T04:06:08.583Z,10.43
2022-11-26T04:10:53.418Z,9.70
2022-11-26T04:15:12.112Z,9.40
2022-11-26T04:19:27.068Z,9.87
2022-11-26T04:23:42.193Z,9.82
2022-11-26T04:27:58.897Z,9.00
2022-11-26T04:32:15.789Z,10.65
2022-11-26T04:36:31.448Z,10.70
2022-11-26T04:40:46.705Z,10.30
2022-11-26T04:45:02.489Z,9.95
2022-11-26T04:49:18.777Z,10.07
2022-11-26T04:53:36.756Z,10.02
2022-11-26T04:57:51.889Z,10.00
2022-11-26T05:02:09.853Z,10.60
2022-11-26T05:06:32.762Z,11.27
2022-11-26T05:10:48.170Z,10.65
2022-11-26T05:15:03.397Z,11.40
2022-11-26T05:19:26.032Z,10.73
2022-11-26T05:23:46.891Z,11.70
2022-11-26T05:28:06.720Z,10.82
2022-11-26T05:32:23.850Z,11.20
2022-11-26T05:36:39.811Z,11.20
2022-11-26T05:40:57.004Z,11.43
2022-11-26T05:45:13.361Z,11.37
2022-11-26T05:49:28.759Z,12.65
2022-11-26T05:53:44.234Z,11.80
2022-11-26T05:58:02.103Z,12.90
2022-11-26T06:02:18.541Z,12.57
2022-11-26T06:06:36.066Z,12.82
2022-11-26T06:10:51.370Z,12.93
2022-11-26T06:15:09.149Z,12.03
2022-11-26T06:19:24.432Z,13.13
2022-11-26T06:23:49.637Z,13.32
2022-11-26T06:28:07.716Z,13.27
2022-11-26T06:32:23.628Z,12.85
2022-11-26T06:36:38.755Z,13.43
2022-11-26T06:41:00.531Z,13.27
2022-11-26T06:45:22.066Z,13.83
2022-11-26T06:49:39.068Z,13.48
2022-11-26T06:53:54.175Z,12.93
2022-11-26T06:58:11.827Z,12.87
2022-11-26T07:02:27.490Z,13.68
2022-11-26T07:06:44.335Z,17.33
2022-11-26T07:11:05.954Z,13.07
2022-11-26T07:15:21.467Z,13.50
2022-11-26T07:19:39.209Z,12.73
2022-11-26T07:23:57.611Z,12.38
2022-11-26T07:28:16.453Z,13.67
2022-11-26T07:32:32.496Z,14.00
2022-11-26T07:37:06.595Z,12.18
2022-11-26T07:41:25.764Z,12.47
2022-11-26T07:45:46.229Z,12.00
2022-11-26T07:50:01.850Z,11.95
2022-11-26T07:54:22.197Z,11.53
2022-11-26T07:58:38.962Z,11.60
2022-11-26T08:03:02.592Z,11.77
2022-11-26T08:07:32.727Z,13.02
2022-11-26T08:12:02.420Z,12.03
2022-11-26T08:16:28.665Z,10.68
2022-11-26T08:20:45.702Z,10.00
2022-11-26T08:25:04.035Z,10.93
2022-11-26T08:29:31.287Z,10.20
2022-11-26T08:33:50.008Z,10.68
2022-11-26T08:38:06.747Z,9.30
2022-11-26T08:42:25.514Z,7.93
2022-11-26T08:46:41.691Z,9.40
2022-11-26T08:51:03.207Z,10.10
2022-11-26T08:55:21.410Z,8.37
2022-11-26T08:59:38.884Z,8.35
2022-11-26T09:03:57.008Z,8.63
2022-11-26T09:08:14.005Z,8.73
2022-11-26T09:12:29.637Z,8.35
2022-11-26T09:16:44.243Z,9.07
2022-11-26T09:21:04.893Z,8.20
2022-11-26T09:25:23.592Z,7.50
2022-11-26T09:29:41.037Z,7.85
2022-11-26T09:33:57.813Z,6.90
2022-11-26T09:38:12.487Z,7.03
2022-11-26T09:42:43.840Z,5.88
2022-11-26T09:47:13.274Z,6.25
2022-11-26T09:51:28.715Z,6.13
2022-11-26T09:55:46.614Z,6.53
2022-11-26T10:00:02.285Z,6.40
2022-11-26T10:04:25.464Z,6.20
2022-11-26T10:09:16.303Z,6.05
2022-11-26T10:13:40.317Z,5.93
2022-11-26T10:18:06.690Z,5.80
2022-11-26T10:22:26.014Z,5.17
2022-11-26T10:26:41.963Z,5.82
2022-11-26T10:31:00.220Z,6.00
2022-11-26T10:35:19.840Z,5.40
2022-11-26T10:39:34.742Z,4.68
2022-11-26T10:43:49.145Z,4.53
2022-11-26T10:48:17.989Z,5.10
2022-11-26T10:52:35.649Z,5.35
2022-11-26T10:56:53.513Z,5.25
2022-11-26T11:01:09.541Z,5.00
2022-11-26T11:05:33.516Z,4.67
2022-11-26T11:10:05.625Z,5.25
2022-11-26T11:14:30.227Z,4.90
2022-11-26T11:18:52.341Z,5.33
2022-11-26T11:23:19.260Z,5.32
2022-11-26T11:27:41.256Z,5.00
2022-11-26T11:31:59.289Z,5.30
2022-11-26T11:36:32.923Z,4.80
2022-11-26T11:40:47.675Z,5.25
2022-11-26T11:45:06.343Z,5.18
2022-11-26T11:49:33.549Z,5.13
2022-11-26T11:53:54.944Z,4.45
2022-11-26T11:58:24.321Z,4.90
2022-11-26T12:03:10.726Z,5.00
2022-11-26T12:07:37.983Z,4.75
2022-11-26T12:11:57.918Z,5.05
2022-11-26T12:16:16.345Z,4.47
2022-11-26T12:20:35.958Z,3.95
2022-11-26T12:24:54.375Z,4.40
2022-11-26T12:29:14.582Z,4.38
2022-11-26T12:33:35.579Z,4.50
2022-11-26T12:38:00.939Z,4.15
2022-11-26T12:42:19.092Z,4.65
2022-11-26T12:46:52.825Z,4.40
2022-11-26T12:52:02.238Z,3.83
2022-11-26T12:56:42.768Z,4.05
2022-11-26T13:01:00.153Z,4.10
2022-11-26T13:05:20.173Z,3.70
2022-11-26T13:09:53.213Z,4.20
2022-11-26T13:14:18.633Z,3.55
2022-11-26T13:18:37.981Z,3.80
2022-11-26T13:23:32.091Z,3.78
2022-11-26T13:28:04.800Z,3.95
2022-11-26T13:32:42.994Z,4.67
2022-11-26T14:16:01.573Z,3.90
2022-11-26T14:20:16.355Z,3.40
2022-11-26T14:24:56.722Z,3.75
2022-11-26T14:29:17.642Z,3.72
2022-11-26T14:33:34.022Z,4.00
2022-11-26T14:37:54.034Z,4.10
2022-11-26T14:42:14.643Z,4.20
2022-11-26T14:46:29.641Z,4.90
2022-11-26T14:50:46.077Z,4.97
2022-11-26T15:19:11.865Z,5.20
2022-11-26T15:24:26.887Z,6.37
2022-11-26T15:29:34.509Z,6.40
2022-11-26T15:34:00.740Z,6.18
2022-11-26T15:38:17.683Z,6.55
2022-11-26T15:42:33.176Z,7.03
2022-11-26T15:46:50.544Z,7.07
2022-11-26T15:51:20.292Z,6.68
2022-11-26T15:55:38.480Z,6.77
2022-11-26T16:00:06.135Z,7.90
2022-11-26T16:04:40.730Z,6.60
2022-11-26T16:09:27.543Z,5.93
2022-11-26T16:13:42.548Z,5.82
2022-11-26T16:17:58.888Z,6.25
2022-11-26T16:22:19.521Z,5.65
2022-11-26T16:26:54.320Z,6.30
2022-11-26T16:31:09.456Z,6.55
2022-11-26T16:35:44.757Z,6.10
2022-11-26T16:40:03.756Z,6.47
2022-11-26T16:44:18.043Z,6.10
2022-11-26T16:48:32.180Z,6.45
2022-11-26T16:52:55.921Z,6.50
2022-11-26T16:57:37.340Z,7.47
2022-11-26T17:01:55.094Z,6.88
2022-11-26T17:06:15.611Z,6.68
2022-11-26T17:10:31.714Z,5.87
2022-11-26T17:14:47.669Z,6.25
2022-11-26T17:19:02.373Z,6.80
2022-11-26T17:23:17.094Z,6.93
2022-11-26T17:27:32.982Z,6.50
2022-11-26T17:31:47.177Z,6.85
2022-11-26T17:36:01.377Z,6.17
2022-11-26T17:40:19.262Z,7.07
2022-11-26T17:44:34.896Z,7.20
2022-11-26T17:48:53.274Z,7.75
2022-11-26T17:53:11.118Z,7.67
2022-11-26T17:57:27.442Z,9.15
2022-11-26T18:01:43.715Z,10.15
2022-11-26T18:05:58.012Z,11.27
2022-11-26T18:10:14.825Z,11.13
2022-11-26T18:14:30.730Z,13.18
2022-11-26T18:18:46.809Z,11.63
2022-11-26T18:23:04.516Z,11.65
2022-11-26T18:27:19.741Z,11.93
2022-11-26T18:31:39.242Z,11.40
2022-11-26T18:35:55.280Z,11.90
2022-11-26T18:40:12.036Z,12.80
2022-11-26T18:44:26.659Z,12.23
2022-11-26T18:48:41.443Z,12.13
2022-11-26T18:52:59.500Z,13.18
2022-11-26T18:57:14.451Z,11.70
2022-11-26T19:01:30.632Z,12.43
2022-11-26T19:05:45.962Z,11.70
2022-11-26T19:10:01.937Z,11.88
2022-11-26T19:14:17.590Z,11.65
2022-11-26T19:18:31.901Z,12.77
2022-11-26T19:22:46.648Z,12.30
2022-11-26T19:27:02.724Z,11.68
2022-11-26T19:31:20.265Z,11.67
2022-11-26T19:35:34.965Z,13.27
2022-11-26T19:39:49.625Z,12.55
2022-11-26T19:44:07.250Z,13.13
2022-11-26T19:48:22.420Z,12.23
2022-11-26T19:52:37.956Z,12.95
2022-11-26T19:56:52.457Z,12.07
2022-11-26T20:01:10.841Z,11.47
2022-11-26T20:05:25.389Z,11.73
2022-11-26T20:09:39.828Z,11.30
2022-11-26T20:13:54.778Z,11.57
2022-11-26T20:18:11.289Z,10.95
2022-11-26T20:22:28.127Z,12.15
2022-11-26T20:26:44.515Z,10.73
2022-11-26T20:30:59.256Z,9.95
2022-11-26T20:35:15.287Z,10.38
2022-11-26T20:39:30.175Z,10.85
2022-11-26T20:43:45.082Z,11.00
2022-11-26T20:47:59.710Z,10.77
2022-11-26T20:52:15.599Z,11.32
2022-11-26T20:56:30.915Z,11.90
2022-11-26T21:00:45.637Z,12.32
2022-11-26T21:05:01.975Z,13.25
2022-11-26T21:09:22.380Z,13.80
2022-11-26T21:13:38.237Z,9.05
2022-11-26T21:17:52.789Z,12.35
2022-11-26T21:22:07.509Z,12.25
2022-11-26T21:26:24.659Z,14.13
2022-11-26T21:30:39.794Z,13.85
2022-11-26T21:34:55.804Z,14.73
2022-11-26T21:39:11.863Z,15.57
2022-11-26T21:43:27.884Z,14.48
2022-11-26T21:47:42.356Z,15.15
2022-11-26T21:51:57.109Z,14.23
2022-11-26T21:56:15.601Z,14.27
2022-11-26T22:00:38.156Z,14.45
2022-11-26T22:04:53.241Z,13.93
2022-11-26T22:09:09.146Z,15.07
2022-11-26T22:13:26.603Z,13.38
2022-11-26T22:17:43.481Z,13.13
2022-11-26T22:21:58.214Z,13.10
2022-11-26T22:26:14.320Z,11.60
2022-11-26T22:30:29.136Z,13.27
2022-11-26T22:34:51.332Z,12.33
2022-11-26T22:39:11.477Z,12.00
2022-11-26T22:43:26.152Z,12.65
2022-11-26T22:47:40.690Z,9.35
2022-11-26T22:51:56.351Z,8.23
2022-11-26T22:56:10.482Z,7.60
2022-11-26T23:00:46.742Z,13.55
2022-11-26T23:05:02.159Z,9.77
2022-11-26T23:09:17.795Z,12.25
2022-11-26T23:13:32.001Z,9.27
2022-11-26T23:17:46.419Z,11.40
2022-11-26T23:22:00.830Z,8.70
2022-11-26T23:26:24.834Z,13.63
2022-11-26T23:30:42.290Z,13.55
2022-11-26T23:34:56.813Z,12.73
2022-11-26T23:39:14.731Z,11.38
2022-11-26T23:43:32.709Z,12.80
2022-11-26T23:47:47.485Z,12.40
2022-11-26T23:52:04.711Z,13.02
2022-11-26T23:56:21.881Z,11.57
